Arrowsic, Maine
Current Conditions -  °F | °C
As of 2:33 PM on Tuesday 21 Oct 2014 (Local Time) from KIWI Reporting Station
Light Rain Light Rain  
Wind Chill: 55°   Ceiling: 900
Heat Index: 55°   Visibility: 7mi
Dew Point: 53°   Wind: 5mph
Humidity: 93%   Direction: 40°NE
Pressure: 30.02"   Gusts: NA
Location:  43.8797°N, 69.8408°W
Report Text: KIWI 211833Z AUTO 04004KT 7SM -RA BKN009 OVC014 13/12 A3002 RMK AO2 RAB1755 CIG 007V011 P0003 T01280117
Loading
Personal Weather Stations






























Interactive Weather Map New forecast layout! Learn more

10-Day Weather Forecast

Advertisements
Track Severe Weather on mobile